Waar ligt Praša de Touros in Portugal?

Praša de Touros is gevestigd in de regio Evora in Portugal!

Zoek de plaatsnaam:

Praša Sant'Ana, Pracki, Praša dos Girassˇis, Prachin Buri, Prackendorf

Hier ziet u waar Praša de Touros op de kaart ligt.
Voor een indruk van hoe het er nu buiten uitziet staan onderaan wat plaatjes van de omgeving vanuit online web camera's.
U ziet ook de afstanden tot de belangrijkste plaatsen in de regio en tot plaatsen in de rest van Portugal.

Alle plaatsen in de wereld die heten.

new

Waar ligt Praša de Touros op de kaart?


Webcams vlakbij Praša de Touros

Abrantes > South-West: Centro Cidade.


Abrantes > South-West: Centro Cidade - Overdag
Recent
Abrantes > South-West: Centro Cidade - Recent

Abrantes > North-West: > North-West: Zona Alta (Torre).


Abrantes > North-West: > North-West: Zona Alta (Torre) - Overdag
Recent
Abrantes > North-West: > North-West: Zona Alta (Torre) - Recent

Benavente > North-East: AIrport, METAR: BENAV 180005Z 36004KT 17/14 Q1015.


Benavente > North-East: AIrport, METAR: BENAV 180005Z 36004KT 17/14 Q1015 - Overdag
Recent
Benavente > North-East: AIrport, METAR: BENAV 180005Z 36004KT 17/14 Q1015 - Recent

Webcams provided by webcams.travel

Afstanden

Waar ligt Praša de Touros ten opzichte van andere plaatsen?

Top 10 plaatsen in Evora en afstand vanaf Praša de Touros.

Plaats#Inwonerskmmijl
╔vora1458514226
Montemor-o-Novo2128545836
Vendas Novas3112487748
Estremoz4934900
Reguengos de Monsaraz572174729
Redondo658452314
Vila Višosa754841610
Borba84586138
Adaval9-2616
Agua d' Alte10-1610

Top 10 plaatsen in Portugal en afstand vanaf Praša de Touros.

Plaats # Inwonerskmmijl
Lisbon151779813584
Porto2249630270168
Amadora317885614389
Braga4121393309192
Set˙bal511710911974
Coimbra6106580167104
Queluz710339814590
Funchal8980411088676
Vila Nova de Gaia970810269167
Loures106623013785

Reisadvies Portugal

Advies en informatie van het ministerie van Buitenlandse Zaken over (zaken)reizen en veiligheidsrisicoĺs in Portugal via rijksoverheid.nl.

Met een reisadvies kunnen Nederlandse reizigers zich beter voorbereiden op veiligheidsrisicoĺs tijdens een buitenlands vakantie of verblijf. Wees geinformerd over de risico's op ontvoeringen, gewapende overvallen, bomaanslagen, natuurrampen of oorlogsgeweld. Buitenlandse Zaken vermeldt in een reisadvies bijvoorbeeld welke gebieden in Portugalo onveilig zijn, roept reizigers op tot waakzaamheid of ontraadt reizen.

Reisadvies Portugal



Reisinformatie Portugal

Informatie over residocumenten, aanvragen van een visa en de kosten hiervan. Contactinformatie van de ambassade in Portugal. Informatie over reisverzekeringen.

Reisinformatie Portugal